Time;durP1;ratioP1;P1;durP2;ratioP2;P2;SDS_P1;SDS_P2;PMS_P1;PMS_P2;Temp;Humidity;BMP_temperature;BMP_pressure;BME280_temperature;BME280_humidity;BME280_pressure;Samples;Min_cycle;Max_cycle;Signal;HPM_P1;HPM_P2
2022/07/07 00:02:22;;;;;;;9.13;3.60;;;14.10;99.90;;;;;;5022439;28;20186;-82
2022/07/07 00:04:47;;;;;;;6.47;3.60;;;14.20;99.90;;;;;;5017096;28;20202;-84
2022/07/07 00:07:13;;;;;;;6.07;4.60;;;14.20;99.90;;;;;;5015286;28;20272;-84
2022/07/07 00:09:39;;;;;;;7.10;3.40;;;14.20;99.90;;;;;;5021056;28;20190;-83
2022/07/07 00:12:05;;;;;;;4.27;3.87;;;14.20;99.90;;;;;;5011546;28;20196;-84
2022/07/07 00:14:31;;;;;;;3.95;3.33;;;14.20;99.90;;;;;;5009259;28;20263;-83
2022/07/07 00:16:57;;;;;;;4.33;3.37;;;14.30;99.90;;;;;;5014734;28;20559;-85
2022/07/07 00:19:23;;;;;;;6.27;3.60;;;14.30;99.90;;;;;;5017440;28;20444;-85
2022/07/07 00:21:48;;;;;;;4.30;3.90;;;14.30;99.90;;;;;;5013715;28;20981;-84
2022/07/07 00:24:14;;;;;;;4.93;3.70;;;14.40;99.90;;;;;;5014703;28;21804;-85
2022/07/07 00:26:40;;;;;;;4.40;4.00;;;14.40;99.90;;;;;;5013707;28;20188;-85
2022/07/07 00:29:06;;;;;;;5.60;3.93;;;14.40;99.90;;;;;;5030798;28;21254;-83
2022/07/07 00:31:32;;;;;;;7.90;4.20;;;14.50;99.90;;;;;;5014657;28;20193;-85
2022/07/07 00:33:58;;;;;;;4.20;3.80;;;14.50;99.90;;;;;;5011082;28;20214;-83
2022/07/07 00:36:23;;;;;;;8.43;4.07;;;14.60;99.90;;;;;;5014282;28;20225;-86
2022/07/07 00:38:49;;;;;;;7.23;3.63;;;14.60;99.90;;;;;;5017976;28;20178;-84
2022/07/07 00:41:15;;;;;;;6.00;4.20;;;14.60;99.90;;;;;;5014288;28;20241;-85
2022/07/07 00:43:43;;;;;;;6.68;3.97;;;14.70;99.90;;;;;;5009683;28;21948;-84
2022/07/07 00:46:08;;;;;;;4.68;3.53;;;14.60;99.90;;;;;;5014208;28;20197;-85
2022/07/07 00:48:36;;;;;;;5.27;4.13;;;14.70;99.90;;;;;;5012762;28;20182;-83
2022/07/07 00:51:04;;;;;;;4.30;3.70;;;14.70;99.90;;;;;;5012829;28;20186;-84
2022/07/07 00:53:30;;;;;;;4.80;4.03;;;14.70;99.90;;;;;;5015573;28;20218;-86
2022/07/07 00:55:55;;;;;;;4.90;3.63;;;14.70;99.90;;;;;;5017116;28;20212;-84
2022/07/07 00:58:21;;;;;;;4.97;4.10;;;14.70;99.90;;;;;;5014107;28;20209;-82
2022/07/07 01:00:47;;;;;;;10.33;4.10;;;14.70;99.90;;;;;;5010898;28;20182;-83
2022/07/07 01:03:13;;;;;;;4.63;3.38;;;14.80;99.90;;;;;;5012832;28;20663;-83
2022/07/07 01:05:40;;;;;;;5.17;4.00;;;14.70;99.90;;;;;;5015082;28;20232;-83
2022/07/07 01:08:08;;;;;;;6.55;3.70;;;14.70;99.90;;;;;;5034854;28;20313;-85
2022/07/07 01:10:34;;;;;;;4.03;3.63;;;14.70;99.90;;;;;;5011378;28;20186;-85
2022/07/07 01:13:04;;;;;;;9.18;3.85;;;14.80;99.90;;;;;;5011330;28;20202;-85
2022/07/07 01:15:30;;;;;;;3.50;3.20;;;14.80;99.90;;;;;;5013230;28;20244;-84
2022/07/07 01:17:56;;;;;;;5.18;4.45;;;14.80;99.90;;;;;;5011693;28;20288;-82
2022/07/07 01:20:22;;;;;;;4.35;3.60;;;14.70;99.90;;;;;;5014112;28;20252;-84
2022/07/07 01:22:52;;;;;;;10.25;3.20;;;14.70;99.90;;;;;;5016004;28;20209;-84
2022/07/07 01:25:18;;;;;;;5.75;4.10;;;14.70;99.90;;;;;;5017543;28;20707;-83
2022/07/07 01:27:44;;;;;;;3.80;3.10;;;14.70;99.90;;;;;;5017448;28;20190;-83
2022/07/07 01:30:10;;;;;;;9.50;3.17;;;14.70;99.90;;;;;;5011705;28;20472;-84
2022/07/07 01:32:36;;;;;;;11.65;2.95;;;14.50;99.90;;;;;;5014420;28;20205;-83
2022/07/07 01:35:02;;;;;;;5.23;2.83;;;14.90;99.90;;;;;;5014716;28;20213;-84
2022/07/07 01:37:27;;;;;;;4.75;3.00;;;14.90;99.90;;;;;;5017617;28;20182;-85
2022/07/07 01:39:53;;;;;;;4.40;3.30;;;15.00;99.90;;;;;;5018440;28;20186;-83
2022/07/07 01:42:19;;;;;;;6.10;3.22;;;15.00;99.90;;;;;;5022467;28;20193;-85
2022/07/07 01:44:45;;;;;;;4.83;3.07;;;15.00;99.90;;;;;;5019389;28;20785;-82
2022/07/07 01:47:13;;;;;;;2.67;2.43;;;15.00;99.90;;;;;;5018220;28;20186;-83
2022/07/07 01:49:39;;;;;;;8.18;2.20;;;15.00;99.90;;;;;;5019961;28;20234;-83
2022/07/07 01:52:06;;;;;;;4.47;3.10;;;15.10;99.90;;;;;;5013329;28;20182;-82
2022/07/07 01:54:32;;;;;;;4.07;2.80;;;15.10;99.90;;;;;;5018106;28;20209;-83
2022/07/07 01:56:58;;;;;;;3.27;2.73;;;15.10;99.90;;;;;;5028046;28;20508;-83
2022/07/07 01:59:24;;;;;;;5.60;2.53;;;15.10;99.90;;;;;;5012792;28;20876;-85
2022/07/07 02:01:50;;;;;;;9.13;3.57;;;15.10;99.90;;;;;;5008759;28;20528;-84
2022/07/07 02:04:16;;;;;;;10.23;2.60;;;15.20;99.90;;;;;;5014554;28;20548;-86
2022/07/07 02:06:42;;;;;;;4.40;2.83;;;15.20;99.90;;;;;;5015949;28;20190;-86
2022/07/07 02:09:08;;;;;;;5.33;3.00;;;15.30;99.90;;;;;;5013369;28;20444;-83
2022/07/07 02:11:34;;;;;;;5.03;3.10;;;15.30;99.90;;;;;;5016024;28;21102;-85
2022/07/07 02:14:01;;;;;;;6.63;2.33;;;15.30;99.90;;;;;;5009687;28;20469;-85
2022/07/07 02:16:27;;;;;;;3.65;2.25;;;15.30;99.90;;;;;;5012028;28;20436;-82
2022/07/07 02:18:55;;;;;;;5.87;2.57;;;15.30;99.90;;;;;;5014532;28;20185;-85
2022/07/07 02:21:22;;;;;;;5.70;2.30;;;15.30;99.90;;;;;;5009347;28;20460;-83
2022/07/07 02:23:49;;;;;;;7.57;3.23;;;15.40;99.90;;;;;;5008324;28;20460;-84
2022/07/07 02:26:15;;;;;;;6.60;2.50;;;15.50;99.90;;;;;;5013467;28;20514;-82
2022/07/07 02:28:41;;;;;;;5.00;2.40;;;15.50;99.90;;;;;;5015390;28;20445;-82
2022/07/07 02:31:07;;;;;;;2.47;2.20;;;15.50;99.90;;;;;;5013481;28;20177;-82
2022/07/07 02:33:33;;;;;;;4.85;2.45;;;15.40;99.90;;;;;;5010104;28;20478;-82
2022/07/07 02:35:59;;;;;;;4.10;2.67;;;15.30;99.90;;;;;;4999920;28;20190;-82
2022/07/07 02:38:25;;;;;;;4.63;2.80;;;15.20;99.90;;;;;;5002886;28;20463;-82
2022/07/07 02:40:51;;;;;;;6.93;2.40;;;15.10;99.90;;;;;;5008358;28;20333;-84
2022/07/07 02:43:18;;;;;;;3.25;2.20;;;15.00;99.90;;;;;;5009366;28;20209;-82
2022/07/07 02:45:45;;;;;;;2.88;2.60;;;15.00;99.90;;;;;;5002841;28;20189;-82
2022/07/07 02:48:14;;;;;;;4.10;2.70;;;15.00;99.90;;;;;;5010338;28;21275;-82
2022/07/07 02:50:40;;;;;;;5.78;2.78;;;14.90;99.90;;;;;;5017198;28;20539;-82
2022/07/07 02:53:07;;;;;;;3.67;2.13;;;14.90;99.90;;;;;;5010983;28;20223;-84
2022/07/07 02:55:33;;;;;;;3.17;2.25;;;14.90;99.90;;;;;;5012072;28;20188;-84
2022/07/07 02:58:00;;;;;;;3.57;2.60;;;15.00;99.90;;;;;;5013847;28;20183;-84
2022/07/07 03:00:26;;;;;;;4.00;2.67;;;15.00;99.90;;;;;;5013354;28;20277;-84
2022/07/07 03:02:55;;;;;;;3.88;2.20;;;15.00;99.90;;;;;;5011012;28;20212;-83
2022/07/07 03:05:23;;;;;;;6.25;1.73;;;15.00;99.90;;;;;;5019941;28;20228;-82
2022/07/07 03:07:49;;;;;;;5.07;2.80;;;15.10;99.90;;;;;;5016220;28;20285;-84
2022/07/07 03:10:15;;;;;;;3.90;2.10;;;15.20;99.90;;;;;;5021891;28;20269;-82
2022/07/07 03:12:41;;;;;;;3.93;2.00;;;15.20;99.90;;;;;;5018784;28;20198;-82
2022/07/07 03:15:08;;;;;;;6.82;2.85;;;15.20;99.90;;;;;;5012899;28;20483;-83
2022/07/07 03:17:35;;;;;;;3.80;1.70;;;15.30;99.90;;;;;;5007038;28;20255;-81
2022/07/07 03:20:00;;;;;;;3.10;2.03;;;15.30;99.90;;;;;;5023364;28;20429;-83
2022/07/07 03:22:26;;;;;;;3.50;2.50;;;15.30;99.90;;;;;;5012792;28;20213;-84
2022/07/07 03:24:51;;;;;;;4.20;2.53;;;15.40;99.90;;;;;;5019847;28;20239;-84
2022/07/07 03:27:17;;;;;;;7.57;2.23;;;15.40;99.90;;;;;;5012748;28;20197;-83
2022/07/07 03:29:42;;;;;;;5.83;2.20;;;15.40;99.90;;;;;;5010426;28;20666;-83
2022/07/07 03:32:09;;;;;;;3.80;2.37;;;15.50;99.90;;;;;;5012949;28;20213;-82
2022/07/07 03:34:35;;;;;;;3.05;2.33;;;15.60;99.90;;;;;;5018040;28;20221;-82
2022/07/07 03:37:00;;;;;;;2.43;1.43;;;15.60;99.90;;;;;;5013142;28;20189;-81
2022/07/07 03:39:26;;;;;;;5.93;2.07;;;15.60;99.90;;;;;;5025951;28;20619;-82
2022/07/07 03:41:51;;;;;;;6.10;2.10;;;15.60;99.90;;;;;;5011225;28;21007;-83
2022/07/07 03:44:17;;;;;;;7.83;3.90;;;15.70;99.90;;;;;;5008816;28;20206;-82
2022/07/07 03:46:44;;;;;;;4.63;2.20;;;15.70;99.90;;;;;;5009551;28;20232;-85
2022/07/07 03:49:10;;;;;;;3.40;2.03;;;15.80;99.90;;;;;;5013354;28;20182;-85
2022/07/07 03:51:35;;;;;;;5.77;2.10;;;15.80;99.90;;;;;;5016374;28;20446;-82
2022/07/07 03:54:01;;;;;;;3.13;2.00;;;15.80;99.90;;;;;;5018448;28;20221;-85
2022/07/07 03:56:26;;;;;;;5.10;2.90;;;15.70;99.90;;;;;;5019633;28;20182;-82
2022/07/07 03:58:51;;;;;;;8.60;2.67;;;15.70;99.90;;;;;;5019460;28;20181;-84
2022/07/07 04:01:17;;;;;;;4.47;3.40;;;15.80;99.90;;;;;;5012883;28;20182;-82
2022/07/07 04:03:42;;;;;;;3.73;3.03;;;15.80;99.90;;;;;;5013681;28;20648;-83
2022/07/07 04:06:08;;;;;;;3.77;2.80;;;15.60;99.90;;;;;;5022293;28;20182;-85
2022/07/07 04:08:33;;;;;;;3.33;2.47;;;15.60;99.90;;;;;;5020424;28;21008;-85
2022/07/07 04:10:59;;;;;;;5.83;2.73;;;15.70;99.90;;;;;;5018597;28;20191;-84
2022/07/07 04:13:25;;;;;;;2.33;1.80;;;15.80;99.90;;;;;;5013670;28;20221;-83
2022/07/07 04:15:51;;;;;;;6.17;1.97;;;15.80;99.90;;;;;;5016651;28;20794;-82
2022/07/07 04:18:16;;;;;;;4.50;2.20;;;15.90;99.90;;;;;;5014204;28;20850;-83
2022/07/07 04:20:42;;;;;;;1.90;1.80;;;16.00;99.90;;;;;;5022303;28;20432;-81
2022/07/07 04:23:08;;;;;;;1.60;1.50;;;16.20;99.90;;;;;;5015616;28;20750;-82
2022/07/07 04:25:33;;;;;;;2.70;1.60;;;16.30;99.90;;;;;;5013386;28;20443;-84
2022/07/07 04:27:59;;;;;;;5.10;1.80;;;16.50;99.90;;;;;;5009535;28;20192;-84
2022/07/07 04:30:24;;;;;;;6.47;1.80;;;16.60;99.90;;;;;;5007134;28;21038;-84
2022/07/07 04:32:50;;;;;;;4.43;2.20;;;16.70;99.90;;;;;;5015942;28;20410;-83
2022/07/07 04:35:15;;;;;;;4.03;2.40;;;16.60;99.90;;;;;;5014171;28;20273;-85
2022/07/07 04:37:41;;;;;;;3.97;2.30;;;16.60;99.90;;;;;;5011425;28;20194;-83
2022/07/07 04:40:07;;;;;;;2.23;1.93;;;16.70;99.90;;;;;;5015312;28;21999;-84
2022/07/07 04:42:33;;;;;;;3.90;2.03;;;16.70;99.90;;;;;;5012946;28;20197;-83
2022/07/07 04:44:59;;;;;;;2.23;2.03;;;16.40;99.90;;;;;;5018339;28;20453;-82
2022/07/07 04:47:24;;;;;;;7.10;1.80;;;16.20;99.90;;;;;;5011326;28;20441;-84
2022/07/07 04:49:53;;;;;;;3.30;1.90;;;16.20;99.90;;;;;;5007777;28;20190;-81
2022/07/07 04:52:19;;;;;;;1.87;1.77;;;16.20;99.90;;;;;;5005667;28;20283;-82
2022/07/07 04:54:45;;;;;;;9.50;1.90;;;16.10;99.90;;;;;;5013206;28;20511;-84
2022/07/07 04:57:10;;;;;;;2.43;1.53;;;16.10;99.90;;;;;;5005973;28;20205;-84
2022/07/07 04:59:36;;;;;;;4.60;1.70;;;16.90;99.90;;;;;;5008830;28;20433;-83
2022/07/07 05:02:02;;;;;;;2.27;1.50;;;18.80;99.90;;;;;;5012980;28;20194;-85
2022/07/07 05:04:28;;;;;;;2.40;1.40;;;21.70;99.90;;;;;;5022870;28;20198;-83
2022/07/07 05:06:53;;;;;;;2.20;1.53;;;23.90;91.70;;;;;;5024897;28;20486;-82
2022/07/07 05:09:19;;;;;;;2.33;1.93;;;24.70;84.10;;;;;;5020311;28;20572;-83
2022/07/07 05:11:45;;;;;;;6.77;2.23;;;25.50;78.10;;;;;;5024138;28;20186;-83
2022/07/07 05:14:10;;;;;;;2.43;1.50;;;27.10;72.60;;;;;;5021206;28;20210;-85
2022/07/07 05:16:36;;;;;;;2.93;1.53;;;25.30;67.10;;;;;;5019800;28;20181;-85
2022/07/07 05:19:02;;;;;;;5.53;1.70;;;23.50;70.70;;;;;;5018436;28;20178;-84
2022/07/07 05:21:27;;;;;;;3.90;1.50;;;21.50;76.70;;;;;;5015385;28;21195;-84
2022/07/07 05:23:53;;;;;;;2.37;1.60;;;20.50;82.50;;;;;;5019953;28;20547;-82
2022/07/07 05:26:19;;;;;;;4.50;1.60;;;19.90;87.10;;;;;;5022473;28;20256;-82
2022/07/07 05:28:44;;;;;;;4.33;2.00;;;21.00;90.30;;;;;;5018312;28;20753;-81
2022/07/07 05:31:14;;;;;;;1.93;1.60;;;23.20;83.20;;;;;;5018608;28;20221;-82
2022/07/07 05:33:41;;;;;;;1.93;1.53;;;22.90;79.40;;;;;;5025815;28;20206;-83
2022/07/07 05:36:07;;;;;;;4.67;1.87;;;22.50;81.00;;;;;;5016008;28;20814;-83
2022/07/07 05:38:34;;;;;;;1.70;1.43;;;23.70;79.30;;;;;;5024494;28;20435;-84
2022/07/07 05:41:00;;;;;;;5.63;2.03;;;23.60;76.10;;;;;;5025225;28;20452;-83
2022/07/07 05:43:25;;;;;;;3.10;1.60;;;23.30;78.10;;;;;;5012951;28;20471;-83
2022/07/07 05:45:51;;;;;;;6.70;1.57;;;24.70;76.70;;;;;;5017759;28;21031;-84
2022/07/07 05:48:17;;;;;;;4.37;1.77;;;24.20;73.40;;;;;;5012483;28;20218;-83
2022/07/07 05:50:43;;;;;;;2.33;1.43;;;22.60;76.60;;;;;;5028688;28;20190;-83
2022/07/07 05:53:08;;;;;;;2.37;1.40;;;24.50;78.50;;;;;;5024597;28;20456;-83
2022/07/07 05:55:34;;;;;;;4.67;1.67;;;24.60;79.00;;;;;;5022407;28;20452;-83
2022/07/07 05:58:00;;;;;;;2.10;1.47;;;24.70;72.30;;;;;;5021817;28;20241;-83
2022/07/07 06:00:26;;;;;;;2.87;2.10;;;24.30;73.30;;;;;;5017309;28;20210;-84
2022/07/07 06:02:52;;;;;;;1.70;1.60;;;23.80;75.30;;;;;;5025479;28;20186;-83
2022/07/07 06:05:17;;;;;;;5.73;2.33;;;24.00;75.00;;;;;;5026565;28;20484;-84
2022/07/07 06:07:43;;;;;;;4.67;2.00;;;22.60;76.30;;;;;;5023094;28;20469;-84
2022/07/07 06:10:11;;;;;;;3.70;1.83;;;21.50;79.40;;;;;;5024943;28;20303;-83
2022/07/07 06:12:37;;;;;;;3.77;1.50;;;21.00;82.60;;;;;;5018252;28;20507;-82
2022/07/07 06:15:03;;;;;;;5.57;2.37;;;20.90;85.70;;;;;;5016856;28;20473;-84
2022/07/07 06:17:29;;;;;;;4.17;2.17;;;20.70;86.10;;;;;;5025142;28;20468;-83
2022/07/07 06:19:54;;;;;;;5.10;1.73;;;20.00;88.30;;;;;;5025459;28;20421;-84
2022/07/07 06:22:20;;;;;;;2.73;1.60;;;19.30;90.20;;;;;;5016452;28;20186;-84
2022/07/07 06:24:45;;;;;;;2.30;1.73;;;19.10;92.00;;;;;;5020206;28;20571;-82
2022/07/07 06:27:11;;;;;;;7.73;1.60;;;19.10;92.50;;;;;;5022776;28;20194;-83
2022/07/07 06:29:37;;;;;;;3.87;2.10;;;19.30;92.80;;;;;;5019113;28;20185;-83
2022/07/07 06:32:03;;;;;;;4.10;2.27;;;19.10;93.50;;;;;;5019555;28;20441;-84
2022/07/07 06:34:29;;;;;;;2.67;1.80;;;18.90;93.70;;;;;;5016660;28;20214;-84
2022/07/07 06:36:54;;;;;;;3.67;1.80;;;18.80;94.90;;;;;;5025778;28;20447;-83
2022/07/07 06:39:20;;;;;;;4.43;1.50;;;18.70;95.60;;;;;;5022482;28;20182;-84
2022/07/07 06:41:45;;;;;;;4.00;1.80;;;18.50;95.90;;;;;;5021322;28;20190;-83
2022/07/07 06:44:11;;;;;;;2.57;1.67;;;18.70;96.90;;;;;;5021090;28;20213;-84
2022/07/07 06:46:39;;;;;;;2.93;1.97;;;18.50;97.50;;;;;;5019937;28;20837;-83
2022/07/07 06:49:05;;;;;;;2.90;1.60;;;18.40;98.00;;;;;;5028470;28;20430;-84
2022/07/07 06:51:31;;;;;;;2.83;1.70;;;18.80;98.80;;;;;;5016459;28;20445;-85
2022/07/07 06:53:57;;;;;;;4.40;1.87;;;19.10;98.50;;;;;;5014637;28;20465;-83
2022/07/07 06:56:22;;;;;;;2.23;1.77;;;19.70;98.10;;;;;;5027799;28;20220;-84
2022/07/07 06:58:48;;;;;;;6.00;1.60;;;19.60;97.00;;;;;;5022296;28;20182;-82
2022/07/07 07:01:13;;;;;;;2.37;1.97;;;19.50;96.70;;;;;;5015688;28;20193;-85
2022/07/07 07:03:39;;;;;;;2.23;1.70;;;19.50;96.90;;;;;;5016787;28;20722;-83
2022/07/07 07:06:04;;;;;;;8.43;1.90;;;19.20;97.30;;;;;;5024615;28;20220;-84
2022/07/07 07:08:30;;;;;;;3.43;1.67;;;19.50;97.80;;;;;;5014470;28;20186;-83
2022/07/07 07:10:55;;;;;;;2.93;1.67;;;19.90;97.60;;;;;;5020241;28;20201;-85
2022/07/07 07:13:21;;;;;;;5.27;2.43;;;20.20;97.20;;;;;;5032282;28;20270;-84
2022/07/07 07:15:47;;;;;;;12.80;1.93;;;20.20;96.00;;;;;;5020498;28;20841;-85
2022/07/07 07:18:12;;;;;;;4.37;2.17;;;20.30;96.50;;;;;;5020375;28;20658;-86
2022/07/07 07:20:40;;;;;;;2.93;2.00;;;20.10;96.80;;;;;;5015111;28;20321;-85
2022/07/07 07:23:05;;;;;;;3.97;2.00;;;19.60;97.50;;;;;;5013839;28;20186;-84
2022/07/07 07:25:31;;;;;;;9.20;2.00;;;19.20;98.10;;;;;;5018327;28;20743;-84
2022/07/07 07:27:57;;;;;;;3.70;2.30;;;19.10;99.30;;;;;;5027005;28;20197;-85
2022/07/07 07:30:23;;;;;;;2.60;1.87;;;19.10;99.90;;;;;;5017890;28;20198;-86
2022/07/07 07:32:48;;;;;;;4.37;1.67;;;19.00;99.70;;;;;;5015953;28;20220;-85
2022/07/07 07:35:14;;;;;;;3.27;1.80;;;19.00;99.90;;;;;;5015452;28;20234;-86
2022/07/07 07:37:39;;;;;;;2.77;1.80;;;19.10;99.90;;;;;;5016770;28;20201;-83
2022/07/07 07:40:10;;;;;;;10.40;2.57;;;19.10;99.90;;;;;;5013683;28;20268;-83
2022/07/07 07:42:37;;;;;;;4.80;1.80;;;19.20;99.90;;;;;;5028788;28;20194;-82
2022/07/07 07:45:09;;;;;;;6.10;2.00;;;20.00;99.90;;;;;;5015333;28;20451;-84
2022/07/07 07:47:35;;;;;;;3.57;1.80;;;18.80;99.90;;;;;;5015901;28;20429;-84
2022/07/07 07:50:01;;;;;;;12.13;2.90;;;18.60;99.90;;;;;;5014414;28;20483;-86
2022/07/07 07:52:26;;;;;;;5.27;2.10;;;18.60;99.90;;;;;;5011588;28;22328;-85
2022/07/07 07:54:52;;;;;;;1.77;1.63;;;18.80;99.90;;;;;;5017240;28;21405;-85
2022/07/07 07:57:18;;;;;;;2.13;1.87;;;19.30;99.90;;;;;;5016241;28;20178;-83
2022/07/07 07:59:44;;;;;;;3.80;2.03;;;20.40;99.90;;;;;;5019877;28;20518;-85
2022/07/07 08:02:10;;;;;;;3.77;1.90;;;21.00;99.90;;;;;;5019510;28;20436;-84
2022/07/07 08:04:35;;;;;;;4.63;2.10;;;20.60;99.90;;;;;;5016368;28;20297;-84
2022/07/07 08:07:01;;;;;;;5.23;1.67;;;20.80;99.90;;;;;;5016254;28;20266;-88
2022/07/07 08:09:27;;;;;;;4.17;1.80;;;20.40;99.70;;;;;;5022946;28;20182;-85
2022/07/07 08:11:53;;;;;;;5.20;2.17;;;21.30;99.90;;;;;;5009912;28;20174;-85
2022/07/07 08:14:18;;;;;;;5.87;3.17;;;22.80;97.40;;;;;;5019287;28;20527;-86
2022/07/07 08:16:44;;;;;;;6.20;3.20;;;22.20;97.20;;;;;;5015596;28;20432;-87
2022/07/07 08:19:10;;;;;;;7.80;2.60;;;22.00;96.40;;;;;;5012630;28;20193;-86
2022/07/07 08:21:35;;;;;;;5.10;2.63;;;21.80;98.10;;;;;;5016731;28;20749;-86
2022/07/07 08:24:01;;;;;;;4.67;3.13;;;21.40;98.10;;;;;;5019840;28;20695;-85
2022/07/07 08:26:27;;;;;;;5.77;3.53;;;21.10;98.30;;;;;;5023009;28;20440;-89
2022/07/07 08:28:53;;;;;;;6.70;3.43;;;20.40;99.70;;;;;;5018199;28;20190;-88
2022/07/07 08:31:18;;;;;;;6.50;3.00;;;20.10;99.90;;;;;;5027767;28;20177;-88
2022/07/07 08:33:44;;;;;;;5.53;3.03;;;20.20;99.90;;;;;;5027076;28;20518;-87
2022/07/07 08:36:10;;;;;;;8.43;3.27;;;20.10;99.90;;;;;;5019402;28;20186;-87
2022/07/07 08:38:35;;;;;;;5.97;3.50;;;20.40;99.90;;;;;;5012879;28;20432;-85
2022/07/07 08:41:01;;;;;;;5.23;3.30;;;20.40;99.90;;;;;;5017521;28;20189;-87
2022/07/07 08:43:28;;;;;;;5.27;2.13;;;19.90;99.90;;;;;;5026099;28;20206;-86
2022/07/07 08:45:53;;;;;;;4.60;2.90;;;19.50;99.90;;;;;;5026972;28;20190;-86
2022/07/07 08:48:21;;;;;;;5.67;2.90;;;19.70;99.90;;;;;;5012832;28;20447;-89
2022/07/07 08:50:47;;;;;;;3.57;2.87;;;;;;;;;;4993639;28;20603;-89
2022/07/07 08:53:13;;;;;;;5.60;3.10;;;;;;;;;;5008812;28;20475;-87
2022/07/07 08:55:41;;;;;;;4.57;3.50;;;19.50;99.90;;;;;;5009081;28;21010;-87
2022/07/07 08:58:09;;;;;;;5.10;3.10;;;19.00;99.90;;;;;;5013939;28;20437;-87
2022/07/07 09:00:34;;;;;;;3.33;2.87;;;18.60;99.90;;;;;;5018537;28;21177;-87
2022/07/07 09:03:03;;;;;;;4.07;3.00;;;18.60;99.90;;;;;;5023174;28;20445;-82
2022/07/07 09:05:33;;;;;;;3.83;3.43;;;18.90;99.90;;;;;;5012665;28;20271;-85
2022/07/07 09:07:59;;;;;;;6.43;3.40;;;18.60;99.90;;;;;;5023776;28;20441;-83
2022/07/07 09:10:33;;;;;;;10.60;3.60;;;18.80;99.90;;;;;;5021054;28;20814;-86
2022/07/07 09:12:59;;;;;;;4.10;3.40;;;19.20;99.90;;;;;;5026591;28;20677;-84
2022/07/07 09:15:25;;;;;;;5.23;2.77;;;19.30;99.90;;;;;;5013661;28;20917;-84
2022/07/07 09:17:50;;;;;;;4.97;3.57;;;19.00;99.90;;;;;;5011119;28;20532;-86
2022/07/07 09:20:16;;;;;;;4.47;3.40;;;18.80;99.90;;;;;;5009866;28;20436;-85
2022/07/07 09:22:48;;;;;;;7.20;3.00;;;18.50;99.90;;;;;;5004733;28;20183;-82
2022/07/07 09:25:20;;;;;;;3.30;3.00;;;18.40;99.90;;;;;;5019360;28;20201;-83
2022/07/07 09:27:56;;;;;;;7.27;2.90;;;18.70;99.90;;;;;;5017120;28;20433;-87
2022/07/07 09:30:37;;;;;;;5.67;3.17;;;18.80;99.90;;;;;;5009455;28;21208;-83
2022/07/07 09:33:28;;;;;;;9.13;2.77;;;18.80;99.90;;;;;;5019716;28;20511;-82
2022/07/07 09:38:40;;;;;;;3.17;2.73;;;19.30;99.90;;;;;;5010621;28;20870;-85
2022/07/07 09:41:13;;;;;;;4.17;2.53;;;19.60;99.90;;;;;;5019714;28;20441;-83
2022/07/07 09:43:46;;;;;;;7.37;2.60;;;20.10;99.90;;;;;;5018866;28;20844;-83
2022/07/07 09:46:23;;;;;;;3.70;2.63;;;20.80;99.90;;;;;;5019866;28;20440;-84
2022/07/07 09:48:53;;;;;;;5.10;3.10;;;21.40;99.90;;;;;;5017751;28;22203;-86
2022/07/07 09:51:20;;;;;;;4.13;2.50;;;21.10;99.90;;;;;;5016721;28;20527;-84
2022/07/07 09:54:07;;;;;;;5.63;2.13;;;20.40;99.90;;;;;;5011948;28;20480;-85
2022/07/07 09:56:35;;;;;;;3.00;2.33;;;19.90;99.90;;;;;;5016993;28;20428;-84
2022/07/07 09:59:06;;;;;;;3.13;2.20;;;20.30;99.90;;;;;;5023144;28;20425;-85
2022/07/07 10:01:35;;;;;;;4.00;2.87;;;20.60;99.90;;;;;;5019322;28;20418;-84
2022/07/07 10:04:06;;;;;;;2.63;2.03;;;21.20;99.90;;;;;;5010974;28;20999;-82
2022/07/07 10:06:34;;;;;;;3.60;2.73;;;21.70;99.90;;;;;;5011087;28;20494;-85
2022/07/07 10:09:09;;;;;;;7.37;2.60;;;21.80;99.90;;;;;;5010313;28;20433;-85
2022/07/07 10:11:43;;;;;;;3.33;2.00;;;21.50;99.90;;;;;;5017406;28;20432;-84
2022/07/07 10:14:14;;;;;;;4.73;2.53;;;21.40;99.90;;;;;;5016441;28;20476;-83
2022/07/07 10:16:42;;;;;;;3.60;2.30;;;21.40;99.90;;;;;;5019946;28;20455;-83
2022/07/07 10:19:10;;;;;;;2.77;2.33;;;21.30;99.90;;;;;;5025897;28;20613;-84
2022/07/07 10:21:37;;;;;;;3.87;2.80;;;21.80;99.90;;;;;;5016643;28;20499;-83
2022/07/07 10:24:04;;;;;;;4.40;2.50;;;21.50;99.90;;;;;;5011666;28;20464;-86
2022/07/07 10:26:40;;;;;;;6.20;3.23;;;21.60;99.90;;;;;;5016066;28;20463;-84
2022/07/07 10:29:08;;;;;;;4.67;3.07;;;21.20;99.90;;;;;;5013655;28;21496;-85
2022/07/07 10:31:34;;;;;;;3.90;2.50;;;20.90;99.90;;;;;;5011993;28;20433;-83
2022/07/07 10:34:02;;;;;;;5.83;2.60;;;21.10;99.90;;;;;;5011442;28;20504;-84
2022/07/07 10:36:49;;;;;;;4.00;2.50;;;20.60;99.90;;;;;;5012148;28;20437;-83
2022/07/07 10:39:15;;;;;;;4.23;2.93;;;20.70;99.90;;;;;;5010802;28;20627;-85
2022/07/07 10:41:54;;;;;;;5.33;2.50;;;21.00;99.90;;;;;;5014891;28;20447;-86
2022/07/07 10:44:20;;;;;;;4.20;2.37;;;21.00;99.90;;;;;;5011071;28;20477;-85
2022/07/07 10:47:03;;;;;;;3.23;2.33;;;20.90;99.90;;;;;;5032252;28;20484;-82
2022/07/07 10:49:42;;;;;;;2.93;2.67;;;20.80;99.90;;;;;;5031721;28;20446;-82
2022/07/07 10:52:29;;;;;;;2.80;2.30;;;20.20;99.90;;;;;;5014024;28;20441;-82
2022/07/07 10:55:00;;;;;;;4.30;3.13;;;20.00;99.90;;;;;;5013875;28;20473;-86
2022/07/07 10:57:27;;;;;;;4.80;2.53;;;19.80;99.90;;;;;;5013407;28;20436;-83
2022/07/07 10:59:58;;;;;;;9.13;3.63;;;19.70;99.90;;;;;;5011504;28;20437;-83
2022/07/07 11:02:33;;;;;;;4.77;3.17;;;19.60;99.90;;;;;;5012383;28;20427;-81
2022/07/07 11:05:00;;;;;;;6.80;2.90;;;19.40;99.90;;;;;;5013650;28;20452;-85
2022/07/07 11:07:28;;;;;;;6.53;2.30;;;19.30;99.90;;;;;;5012652;28;20439;-85
2022/07/07 11:10:04;;;;;;;5.50;2.87;;;19.20;99.90;;;;;;5019251;28;20429;-84
2022/07/07 11:12:34;;;;;;;3.77;2.20;;;19.30;99.90;;;;;;5019031;28;20428;-84
2022/07/07 11:15:32;;;;;;;6.80;2.73;;;19.50;99.90;;;;;;5026590;28;20560;-85
2022/07/07 11:18:00;;;;;;;3.63;2.60;;;19.80;99.90;;;;;;4998898;28;20433;-85
2022/07/07 11:20:29;;;;;;;6.97;2.77;;;19.90;99.90;;;;;;5020684;28;20436;-84
2022/07/07 11:23:15;;;;;;;3.10;2.40;;;19.90;99.90;;;;;;5015154;28;20851;-86
2022/07/07 11:25:41;;;;;;;4.23;2.90;;;20.60;99.90;;;;;;5022166;28;20435;-86
2022/07/07 11:28:09;;;;;;;5.13;3.17;;;20.70;99.90;;;;;;5022162;28;20971;-85
2022/07/07 11:30:37;;;;;;;2.73;2.53;;;20.60;99.90;;;;;;5017233;28;20432;-85
2022/07/07 11:33:03;;;;;;;8.80;3.67;;;20.60;99.90;;;;;;5015009;28;20468;-83
2022/07/07 11:35:37;;;;;;;3.70;2.90;;;20.30;99.90;;;;;;5026588;28;20425;-85
2022/07/07 11:38:05;;;;;;;4.23;3.00;;;20.00;99.90;;;;;;5013540;28;20169;-83
2022/07/07 11:40:31;;;;;;;4.67;3.40;;;20.00;99.90;;;;;;5021390;28;20468;-84
2022/07/07 11:43:01;;;;;;;5.33;3.00;;;19.80;99.90;;;;;;5018648;28;20425;-84
2022/07/07 11:45:31;;;;;;;4.13;3.00;;;19.70;99.90;;;;;;5017593;28;20432;-84
2022/07/07 11:48:04;;;;;;;8.37;3.53;;;19.60;99.90;;;;;;5025594;28;20506;-83
2022/07/07 11:50:31;;;;;;;5.30;3.20;;;19.40;99.90;;;;;;5029417;28;20441;-82
2022/07/07 11:52:59;;;;;;;7.37;3.07;;;19.40;99.90;;;;;;5023096;28;21207;-84
2022/07/07 11:55:26;;;;;;;4.20;2.83;;;19.40;99.90;;;;;;5025127;28;20444;-84
2022/07/07 11:57:54;;;;;;;6.17;3.63;;;19.50;99.90;;;;;;5021963;28;20527;-86
2022/07/07 12:00:22;;;;;;;3.90;2.70;;;19.50;99.90;;;;;;5024587;28;21056;-85
2022/07/07 12:02:50;;;;;;;5.43;3.50;;;19.30;99.90;;;;;;5020844;28;20436;-82
2022/07/07 12:05:21;;;;;;;7.80;3.13;;;19.30;99.90;;;;;;5018600;28;20445;-83
2022/07/07 12:07:54;;;;;;;4.10;2.80;;;19.40;99.90;;;;;;5015200;28;20508;-84
2022/07/07 12:10:31;;;;;;;6.20;3.10;;;19.40;99.90;;;;;;5023315;28;20432;-81
2022/07/07 12:13:05;;;;;;;6.27;3.03;;;19.60;99.90;;;;;;5032535;28;20429;-85
2022/07/07 12:15:36;;;;;;;7.07;2.73;;;20.00;99.90;;;;;;5021363;28;21330;-81
2022/07/07 12:18:03;;;;;;;3.33;2.80;;;20.70;99.90;;;;;;5046829;28;20579;-82
2022/07/07 12:20:29;;;;;;;7.97;3.33;;;21.40;99.90;;;;;;5022903;28;20459;-84
2022/07/07 12:22:57;;;;;;;4.63;2.50;;;21.50;99.90;;;;;;5018211;28;20766;-84
2022/07/07 12:25:25;;;;;;;11.00;3.53;;;21.30;99.90;;;;;;5025400;28;20457;-83
2022/07/07 12:28:01;;;;;;;6.07;3.27;;;21.10;99.90;;;;;;5022377;28;20423;-84
2022/07/07 12:30:35;;;;;;;4.20;3.47;;;20.70;99.90;;;;;;5020281;28;20432;-82
2022/07/07 12:33:02;;;;;;;4.83;2.87;;;20.30;99.90;;;;;;5028876;28;20541;-82
2022/07/07 12:35:33;;;;;;;10.00;3.30;;;20.20;99.90;;;;;;5018482;28;20988;-83
2022/07/07 12:38:01;;;;;;;5.70;3.23;;;20.10;99.90;;;;;;5014837;28;20424;-83
2022/07/07 12:40:29;;;;;;;3.60;3.17;;;20.20;99.90;;;;;;5021239;28;20536;-84
2022/07/07 12:42:55;;;;;;;4.07;2.90;;;19.80;99.90;;;;;;5022349;28;20987;-82
2022/07/07 12:45:22;;;;;;;10.13;4.00;;;19.80;99.90;;;;;;5020853;28;21027;-84
2022/07/07 12:47:51;;;;;;;4.80;3.13;;;19.70;99.90;;;;;;5018146;28;20432;-82
2022/07/07 12:50:18;;;;;;;8.47;3.10;;;19.60;99.90;;;;;;5015836;28;21361;-82
2022/07/07 12:53:02;;;;;;;7.53;1.97;;;19.50;99.90;;;;;;5030477;28;20424;-85